Time;durP1;ratioP1;P1;durP2;ratioP2;P2;SDS_P1;SDS_P2;PMS_P1;PMS_P2;Temp;Humidity;BMP_temperature;BMP_pressure;BME280_temperature;BME280_humidity;BME280_pressure;Samples;Min_cycle;Max_cycle;Signal;HPM_P1;HPM_P2
2022/05/22 00:02:09;;;;;;;;;;;;;;;17.36;44.73;101357.97;5006289;28;96832;-74
2022/05/22 00:04:37;;;;;;;;;;;;;;;17.60;44.40;101364.63;5004881;28;98856;-74
2022/05/22 00:07:05;;;;;;;;;;;;;;;17.61;44.29;101362.88;5007615;28;99219;-75
2022/05/22 00:09:32;;;;;;;;;;;;;;;17.29;45.01;101365.44;5008035;28;96724;-75
2022/05/22 00:11:58;;;;;;;;;;;;;;;17.07;45.41;101357.69;5012191;28;96883;-74
2022/05/22 00:14:25;;;;;;;;;;;;;;;17.22;45.17;101358.69;5002887;28;99362;-73
2022/05/22 00:16:52;;;;;;;;;;;;;;;17.71;44.24;101361.44;5005682;28;99802;-73
2022/05/22 00:19:20;;;;;;;;;;;;;;;17.08;45.35;101363.91;5006963;28;97529;-75
2022/05/22 00:21:48;;;;;;;;;;;;;;;17.37;44.84;101365.03;5006070;28;96818;-72
2022/05/22 00:24:14;;;;;;;;;;;;;;;17.70;44.00;101354.34;5006085;28;97745;-73
2022/05/22 00:26:41;;;;;;;;;;;;;;;17.59;44.18;101354.06;5003609;28;99354;-72
2022/05/22 00:29:08;;;;;;;;;;;;;;;17.46;44.44;101354.69;5000817;28;96931;-73
2022/05/22 00:31:34;;;;;;;;;;;;;;;17.17;44.89;101355.41;5007145;28;97137;-73
2022/05/22 00:34:01;;;;;;;;;;;;;;;17.48;44.39;101357.28;5004724;28;101744;-73
2022/05/22 00:36:27;;;;;;;;;;;;;;;17.42;44.49;101346.94;5009435;28;98745;-72
2022/05/22 00:38:55;;;;;;;;;;;;;;;16.87;45.76;101352.53;5010902;28;97686;-73
2022/05/22 00:41:22;;;;;;;;;;;;;;;16.98;45.87;101350.19;5009901;28;96869;-73
2022/05/22 00:43:50;;;;;;;;;;;;;;;17.28;44.97;101344.16;5001503;28;98270;-74
2022/05/22 00:46:17;;;;;;;;;;;;;;;17.54;44.53;101349.81;5006838;28;98926;-73
2022/05/22 00:48:44;;;;;;;;;;;;;;;17.01;45.73;101336.66;5003317;28;96742;-75
2022/05/22 00:51:13;;;;;;;;;;;;;;;17.04;45.61;101341.00;5005620;28;96839;-73
2022/05/22 00:53:42;;;;;;;;;;;;;;;17.19;45.42;101345.53;5004574;28;99448;-66
2022/05/22 00:56:14;;;;;;;;;;;;;;;17.14;45.52;101350.22;5008946;28;101517;-66
2022/05/22 00:58:42;;;;;;;;;;;;;;;17.09;45.77;101339.81;5005023;28;96920;-67
2022/05/22 01:01:08;;;;;;;;;;;;;;;16.95;46.14;101345.00;5002980;28;96868;-67
2022/05/22 01:03:36;;;;;;;;;;;;;;;17.21;45.42;101353.44;5003598;28;98867;-67
2022/05/22 01:06:04;;;;;;;;;;;;;;;16.95;46.00;101346.81;5005086;28;99561;-67
2022/05/22 01:08:31;;;;;;;;;;;;;;;16.47;47.04;101350.19;5002014;28;96953;-67
2022/05/22 01:10:59;;;;;;;;;;;;;;;16.57;47.00;101341.63;5005260;28;97372;-67
2022/05/22 01:13:28;;;;;;;;;;;;;;;16.54;47.58;101343.59;5004015;28;98201;-67
2022/05/22 01:15:54;;;;;;;;;;;;;;;16.74;47.01;101348.78;5000862;28;99053;-66
2022/05/22 01:18:20;;;;;;;;;;;;;;;16.17;48.45;101357.88;5009546;28;96860;-65
2022/05/22 01:20:47;;;;;;;;;;;;;;;16.49;47.51;101353.59;5000890;28;96923;-66
2022/05/22 01:23:15;;;;;;;;;;;;;;;16.27;48.42;101360.03;5000606;28;97702;-65
2022/05/22 01:25:41;;;;;;;;;;;;;;;15.92;48.73;101356.41;4996390;28;99402;-66
2022/05/22 01:28:09;;;;;;;;;;;;;;;16.68;47.57;101355.28;5000382;28;96851;-66
2022/05/22 01:30:35;;;;;;;;;;;;;;;16.62;47.69;101360.09;5006536;28;97276;-66
2022/05/22 01:33:01;;;;;;;;;;;;;;;16.25;48.34;101355.72;5005445;28;99609;-66
2022/05/22 01:35:28;;;;;;;;;;;;;;;16.48;48.06;101346.53;5007821;28;97758;-65
2022/05/22 01:37:55;;;;;;;;;;;;;;;16.24;48.39;101349.50;5005480;28;96851;-65
2022/05/22 01:40:23;;;;;;;;;;;;;;;16.51;48.24;101347.25;5002250;28;96861;-66
2022/05/22 01:42:50;;;;;;;;;;;;;;;16.44;48.66;101345.84;5008429;28;99667;-65
2022/05/22 01:45:18;;;;;;;;;;;;;;;15.72;50.41;101347.63;5002493;28;98066;-65
2022/05/22 01:47:44;;;;;;;;;;;;;;;16.12;49.43;101354.56;5002123;28;97301;-66
2022/05/22 01:50:11;;;;;;;;;;;;;;;15.85;50.09;101346.13;5010510;28;96732;-65
2022/05/22 01:52:37;;;;;;;;;;;;;;;15.77;50.69;101345.59;5004468;28;98261;-72
2022/05/22 01:55:04;;;;;;;;;;;;;;;16.48;48.82;101341.22;5003048;28;99180;-73
2022/05/22 01:57:32;;;;;;;;;;;;;;;16.84;47.72;101339.38;5004074;28;97025;-74
2022/05/22 01:59:58;;;;;;;;;;;;;;;16.76;48.05;101346.91;5005761;28;96881;-74
2022/05/22 02:02:24;;;;;;;;;;;;;;;16.37;48.92;101357.75;5003470;28;99375;-66
2022/05/22 02:04:51;;;;;;;;;;;;;;;16.47;48.66;101353.72;4999646;28;99711;-65
2022/05/22 02:10:01;;;;;;;;;;;;;;;15.86;50.26;101348.72;5005928;28;96766;-66
2022/05/22 02:12:28;;;;;;;;;;;;;;;16.27;49.49;101348.50;5006718;28;98784;-65
2022/05/22 02:14:56;;;;;;;;;;;;;;;16.73;48.59;101339.94;5002849;28;97664;-66
2022/05/22 02:17:22;;;;;;;;;;;;;;;16.11;49.94;101344.84;5005698;28;98845;-66
2022/05/22 02:19:48;;;;;;;;;;;;;;;16.00;50.17;101333.84;4999837;28;96892;-67
2022/05/22 02:22:14;;;;;;;;;;;;;;;15.93;50.26;101339.47;5003844;28;101118;-66
2022/05/22 02:24:40;;;;;;;;;;;;;;;16.46;49.07;101337.78;5000486;28;99774;-66
2022/05/22 02:27:07;;;;;;;;;;;;;;;16.24;49.93;101337.97;5003123;28;97159;-66
2022/05/22 02:29:34;;;;;;;;;;;;;;;16.70;48.78;101337.41;5000510;28;98724;-65
2022/05/22 02:32:02;;;;;;;;;;;;;;;16.90;48.27;101333.72;5000547;28;100694;-66
2022/05/22 02:34:28;;;;;;;;;;;;;;;16.96;48.22;101328.03;5008678;28;98675;-66
2022/05/22 02:36:55;;;;;;;;;;;;;;;16.18;49.96;101328.47;5001213;28;96808;-72
2022/05/22 02:39:21;;;;;;;;;;;;;;;16.51;49.12;101333.94;5006274;28;96954;-71
2022/05/22 02:41:47;;;;;;;;;;;;;;;16.04;50.63;101341.63;5004145;28;98955;-72
2022/05/22 02:44:14;;;;;;;;;;;;;;;16.76;48.95;101336.22;5005418;28;99323;-73
2022/05/22 02:46:41;;;;;;;;;;;;;;;16.69;49.13;101327.69;5002907;28;96796;-66
2022/05/22 02:49:09;;;;;;;;;;;;;;;16.73;48.99;101323.94;5002497;28;96824;-66
2022/05/22 02:51:35;;;;;;;;;;;;;;;15.88;50.94;101328.16;5005155;28;99443;-65
2022/05/22 02:54:02;;;;;;;;;;;;;;;16.08;50.89;101332.53;5000890;28;97927;-67
2022/05/22 02:56:28;;;;;;;;;;;;;;;15.90;51.27;101330.75;5001290;28;96826;-67
2022/05/22 02:58:55;;;;;;;;;;;;;;;15.95;51.37;101336.72;5002707;28;97311;-65
2022/05/22 03:01:21;;;;;;;;;;;;;;;15.94;51.57;101335.03;5000444;28;99385;-67
2022/05/22 03:03:47;;;;;;;;;;;;;;;16.37;50.44;101332.88;5001615;28;99448;-67
2022/05/22 03:08:58;;;;;;;;;;;;;;;16.67;49.80;101324.22;5005731;28;96918;-67
2022/05/22 03:11:25;;;;;;;;;;;;;;;16.93;49.07;101324.69;5005612;28;97943;-67
2022/05/22 03:13:52;;;;;;;;;;;;;;;16.44;50.37;101335.19;5004024;28;99629;-67
2022/05/22 03:16:18;;;;;;;;;;;;;;;16.89;49.41;101331.97;5003701;28;97678;-67
2022/05/22 03:18:44;;;;;;;;;;;;;;;16.61;49.61;101331.66;4997409;28;97617;-65
2022/05/22 03:21:12;;;;;;;;;;;;;;;15.70;52.54;101330.84;5003251;28;99271;-66
2022/05/22 03:23:40;;;;;;;;;;;;;;;16.38;51.14;101329.28;4999495;28;101660;-66
2022/05/22 03:26:09;;;;;;;;;;;;;;;16.23;51.14;101331.78;5005915;28;97117;-66
2022/05/22 03:28:35;;;;;;;;;;;;;;;16.47;50.63;101336.84;5001418;28;96956;-66
2022/05/22 03:31:02;;;;;;;;;;;;;;;15.86;52.48;101343.38;4999874;28;99313;-66
2022/05/22 03:33:28;;;;;;;;;;;;;;;15.64;52.80;101342.66;5003137;28;98994;-66
2022/05/22 03:35:54;;;;;;;;;;;;;;;15.46;53.57;101333.69;4997190;28;96866;-67
2022/05/22 03:38:20;;;;;;;;;;;;;;;15.42;54.15;101347.25;5002334;28;96999;-66
2022/05/22 03:40:48;;;;;;;;;;;;;;;15.59;53.68;101347.34;5002310;28;98875;-67
2022/05/22 03:43:15;;;;;;;;;;;;;;;16.23;52.03;101342.44;5004203;28;99718;-66
2022/05/22 03:45:42;;;;;;;;;;;;;;;16.39;51.47;101341.69;5002104;28;96735;-67
2022/05/22 03:48:08;;;;;;;;;;;;;;;16.08;51.95;101348.50;5001542;28;96966;-66
2022/05/22 03:50:35;;;;;;;;;;;;;;;16.30;51.63;101345.66;4999563;28;99105;-73
2022/05/22 03:53:01;;;;;;;;;;;;;;;16.44;51.29;101347.66;4995597;28;99020;-73
2022/05/22 03:55:27;;;;;;;;;;;;;;;16.47;51.21;101348.38;5002969;28;96859;-73
2022/05/22 03:57:55;;;;;;;;;;;;;;;17.03;49.78;101337.47;5001790;28;96983;-73
2022/05/22 04:00:23;;;;;;;;;;;;;;;16.66;50.54;101329.66;5001234;28;99234;-73
2022/05/22 04:02:50;;;;;;;;;;;;;;;16.62;50.63;101333.41;5004190;28;100107;-73
2022/05/22 04:05:17;;;;;;;;;;;;;;;16.46;51.32;101337.78;5006937;28;97043;-73
2022/05/22 04:07:44;;;;;;;;;;;;;;;16.56;50.76;101333.69;4997293;28;96947;-73
2022/05/22 04:10:12;;;;;;;;;;;;;;;16.12;52.50;101338.59;5003747;28;102083;-74
2022/05/22 04:12:38;;;;;;;;;;;;;;;16.30;51.93;101338.53;4994354;28;100374;-73
2022/05/22 04:15:08;;;;;;;;;;;;;;;16.52;51.05;101335.66;4998137;28;98085;-74
2022/05/22 04:17:35;;;;;;;;;;;;;;;16.93;50.14;101336.22;5003198;28;97569;-72
2022/05/22 04:20:01;;;;;;;;;;;;;;;17.04;49.67;101339.19;5000352;28;97638;-73
2022/05/22 04:22:27;;;;;;;;;;;;;;;17.16;49.14;101345.69;5001321;28;99157;-73
2022/05/22 04:25:11;;;;;;;;;;;;;;;16.81;50.00;101344.00;5000268;28;98577;-73
2022/05/22 04:27:38;;;;;;;;;;;;;;;16.77;50.39;101348.63;4998721;28;96922;-73
2022/05/22 04:30:05;;;;;;;;;;;;;;;16.38;51.47;101348.81;4999763;28;101764;-73
2022/05/22 04:32:33;;;;;;;;;;;;;;;16.99;49.88;101348.38;4998714;28;101642;-73
2022/05/22 04:34:59;;;;;;;;;;;;;;;17.20;49.26;101352.56;5005984;28;96748;-73
2022/05/22 04:37:25;;;;;;;;;;;;;;;17.32;49.05;101354.63;5004123;28;96840;-74
2022/05/22 04:39:52;;;;;;;;;;;;;;;17.31;48.74;101354.69;5001544;28;98924;-73
2022/05/22 04:42:18;;;;;;;;;;;;;;;17.71;48.18;101351.59;4999877;28;99168;-74
2022/05/22 04:44:44;;;;;;;;;;;;;;;17.97;47.50;101352.81;5013468;28;96873;-74
2022/05/22 04:47:10;;;;;;;;;;;;;;;17.39;48.95;101357.81;5010670;28;97134;-73
2022/05/22 04:49:38;;;;;;;;;;;;;;;17.17;49.73;101363.44;5006243;28;97831;-73
2022/05/22 04:52:05;;;;;;;;;;;;;;;17.27;49.73;101367.31;5001603;28;98132;-66
2022/05/22 04:54:31;;;;;;;;;;;;;;;17.74;48.38;101362.09;5003009;28;97634;-66
2022/05/22 04:56:57;;;;;;;;;;;;;;;17.78;48.07;101362.81;5005811;28;97665;-66
2022/05/22 04:59:24;;;;;;;;;;;;;;;17.66;48.39;101360.78;5001010;28;98943;-66
2022/05/22 05:01:50;;;;;;;;;;;;;;;17.83;47.85;101364.28;5007649;28;99319;-66
2022/05/22 05:04:16;;;;;;;;;;;;;;;17.17;49.40;101367.91;5006605;28;97203;-66
2022/05/22 05:06:44;;;;;;;;;;;;;;;16.69;50.84;101377.50;5004117;28;98787;-67
2022/05/22 05:09:10;;;;;;;;;;;;;;;17.29;49.65;101376.13;4999346;28;97617;-66
2022/05/22 05:11:37;;;;;;;;;;;;;;;17.37;49.22;101375.72;5006361;28;99155;-67
2022/05/22 05:14:03;;;;;;;;;;;;;;;17.91;48.02;101372.75;5005696;28;99054;-66
2022/05/22 05:16:30;;;;;;;;;;;;;;;17.71;48.54;101369.44;5002536;28;97263;-66
2022/05/22 05:18:56;;;;;;;;;;;;;;;17.27;49.56;101369.13;5002420;28;98599;-67
2022/05/22 05:21:22;;;;;;;;;;;;;;;17.00;50.62;101361.63;4997956;28;99139;-65
2022/05/22 05:23:50;;;;;;;;;;;;;;;17.18;49.94;101358.97;5003488;28;98190;-68
2022/05/22 05:26:16;;;;;;;;;;;;;;;17.09;50.60;101361.16;5007820;28;97006;-67
2022/05/22 05:28:43;;;;;;;;;;;;;;;16.73;51.07;101355.94;4998275;28;98879;-67
2022/05/22 05:31:09;;;;;;;;;;;;;;;17.18;50.24;101356.28;5004538;28;100316;-66
2022/05/22 05:33:36;;;;;;;;;;;;;;;17.92;48.42;101357.53;4998164;28;97469;-67
2022/05/22 05:36:03;;;;;;;;;;;;;;;16.96;50.60;101364.56;5004178;28;97148;-66
2022/05/22 05:38:32;;;;;;;;;;;;;;;17.69;48.55;101358.84;5003156;28;97680;-66
2022/05/22 05:41:00;;;;;;;;;;;;;;;18.21;47.58;101359.44;5007425;28;99860;-66
2022/05/22 05:43:26;;;;;;;;;;;;;;;19.08;45.49;101362.31;5006173;28;96796;-66
2022/05/22 05:45:52;;;;;;;;;;;;;;;19.35;45.21;101371.34;5002435;28;97181;-67
2022/05/22 05:48:18;;;;;;;;;;;;;;;18.68;45.94;101378.09;5010855;28;99554;-67
2022/05/22 05:50:45;;;;;;;;;;;;;;;18.83;45.85;101370.13;5001326;28;98926;-68
2022/05/22 05:53:12;;;;;;;;;;;;;;;17.96;47.83;101371.59;5004245;28;97879;-67
2022/05/22 05:55:38;;;;;;;;;;;;;;;18.68;46.54;101369.19;5005379;28;97443;-67
2022/05/22 05:58:06;;;;;;;;;;;;;;;18.79;45.78;101361.38;4999496;28;101808;-67
2022/05/22 06:00:32;;;;;;;;;;;;;;;18.56;46.57;101368.13;5006993;28;101686;-68
2022/05/22 06:02:58;;;;;;;;;;;;;;;18.79;45.60;101371.22;5006794;28;96796;-74
2022/05/22 06:05:24;;;;;;;;;;;;;;;18.99;45.57;101362.88;5005502;28;96911;-72
2022/05/22 06:07:51;;;;;;;;;;;;;;;18.49;46.84;101369.41;5001438;28;99088;-73
2022/05/22 06:10:18;;;;;;;;;;;;;;;18.48;46.78;101372.16;5007790;28;98812;-71
2022/05/22 06:12:46;;;;;;;;;;;;;;;18.80;46.25;101362.25;5004408;28;97076;-72
2022/05/22 06:15:14;;;;;;;;;;;;;;;19.08;45.56;101365.84;4999940;28;96986;-72
2022/05/22 06:17:43;;;;;;;;;;;;;;;19.00;46.01;101364.59;5000067;28;98938;-72
2022/05/22 06:20:10;;;;;;;;;;;;;;;19.49;43.93;101373.19;4998799;28;99509;-72
2022/05/22 06:22:37;;;;;;;;;;;;;;;18.82;45.59;101363.03;5000924;28;96872;-72
2022/05/22 06:25:04;;;;;;;;;;;;;;;18.73;45.90;101369.78;5001798;28;96946;-73
2022/05/22 06:27:30;;;;;;;;;;;;;;;18.14;47.87;101373.22;5002352;28;99062;-73
2022/05/22 06:29:56;;;;;;;;;;;;;;;17.56;49.19;101364.91;5002697;28;97598;-73
2022/05/22 06:32:24;;;;;;;;;;;;;;;17.90;48.53;101359.44;5003427;28;97164;-72
2022/05/22 06:34:51;;;;;;;;;;;;;;;18.67;46.87;101356.78;5005779;28;97054;-73
2022/05/22 06:37:18;;;;;;;;;;;;;;;19.14;45.79;101351.22;5002753;28;98916;-73
2022/05/22 06:39:49;;;;;;;;;;;;;;;19.71;44.67;101361.94;5003223;28;100551;-74
2022/05/22 06:42:17;;;;;;;;;;;;;;;19.36;44.63;101361.47;5009332;28;97061;-75
2022/05/22 06:44:43;;;;;;;;;;;;;;;19.88;43.85;101364.44;5001298;28;96834;-75
2022/05/22 06:47:10;;;;;;;;;;;;;;;19.83;43.77;101356.66;5005847;28;98999;-73
2022/05/22 06:49:38;;;;;;;;;;;;;;;19.32;45.06;101365.28;5003510;28;97839;-73
2022/05/22 06:52:04;;;;;;;;;;;;;;;19.23;44.92;101355.16;5003534;28;96762;-73
2022/05/22 06:54:31;;;;;;;;;;;;;;;19.39;44.84;101358.59;5004919;28;97186;-73
2022/05/22 06:56:57;;;;;;;;;;;;;;;19.70;43.76;101358.41;5001457;28;98074;-74
2022/05/22 06:59:24;;;;;;;;;;;;;;;19.08;45.53;101357.81;4996643;28;98838;-74
2022/05/22 07:01:50;;;;;;;;;;;;;;;18.69;45.73;101358.41;5003848;28;97649;-76
2022/05/22 07:04:20;;;;;;;;;;;;;;;20.03;43.57;101365.25;5002853;28;97718;-68
2022/05/22 07:06:47;;;;;;;;;;;;;;;20.03;43.14;101368.78;5001614;28;98824;-67
2022/05/22 07:09:14;;;;;;;;;;;;;;;19.92;43.29;101360.59;5004317;28;98925;-74
2022/05/22 07:11:40;;;;;;;;;;;;;;;20.06;43.15;101352.50;5004217;28;97851;-73
2022/05/22 07:14:06;;;;;;;;;;;;;;;20.04;43.06;101366.97;5010283;28;96848;-74
2022/05/22 07:16:34;;;;;;;;;;;;;;;19.59;44.07;101358.25;5001894;28;98196;-66
2022/05/22 07:19:00;;;;;;;;;;;;;;;19.66;43.89;101358.72;5002911;28;99168;-66
2022/05/22 07:21:26;;;;;;;;;;;;;;;19.55;44.41;101355.84;4996004;28;97263;-67
2022/05/22 07:23:54;;;;;;;;;;;;;;;19.85;43.99;101360.13;5003226;28;97991;-67
2022/05/22 07:26:21;;;;;;;;;;;;;;;19.76;43.65;101360.69;4996249;28;99726;-68
2022/05/22 07:28:48;;;;;;;;;;;;;;;19.47;43.83;101356.34;4997006;28;99105;-68
2022/05/22 07:31:15;;;;;;;;;;;;;;;19.94;43.32;101358.66;4999638;28;96997;-66
2022/05/22 07:33:41;;;;;;;;;;;;;;;20.04;42.56;101359.78;4994789;28;97627;-67
2022/05/22 07:36:07;;;;;;;;;;;;;;;20.49;41.08;101357.72;4999099;28;99234;-68
2022/05/22 07:38:34;;;;;;;;;;;;;;;20.88;40.35;101346.97;5002386;28;98098;-71
2022/05/22 07:41:02;;;;;;;;;;;;;;;21.19;38.86;101344.88;4997005;28;98559;-68
2022/05/22 07:43:28;;;;;;;;;;;;;;;20.99;39.90;101348.91;4997011;28;98717;-69
2022/05/22 07:45:54;;;;;;;;;;;;;;;20.16;41.04;101347.38;4998167;28;99282;-70
2022/05/22 07:48:21;;;;;;;;;;;;;;;20.40;41.01;101350.31;4994653;28;98747;-69
2022/05/22 07:50:47;;;;;;;;;;;;;;;21.11;40.10;101341.81;5001420;28;98750;-69
2022/05/22 07:53:14;;;;;;;;;;;;;;;21.47;39.05;101347.31;4997511;28;98845;-69
2022/05/22 07:55:40;;;;;;;;;;;;;;;21.16;39.11;101339.69;4999606;28;97834;-70
2022/05/22 07:58:08;;;;;;;;;;;;;;;21.66;38.19;101339.63;4997582;28;99355;-68
2022/05/22 08:00:58;;;;;;;;;;;;;;;21.23;38.24;101344.53;4993599;28;96916;-68
2022/05/22 08:03:24;;;;;;;;;;;;;;;21.09;39.31;101340.09;4990728;28;98197;-67
2022/05/22 08:05:51;;;;;;;;;;;;;;;20.87;39.50;101339.84;4997235;28;99537;-67
2022/05/22 08:08:17;;;;;;;;;;;;;;;20.51;40.67;101337.88;4993072;28;98823;-67
2022/05/22 08:10:44;;;;;;;;;;;;;;;21.14;39.44;101326.34;4995842;28;97732;-67
2022/05/22 08:13:13;;;;;;;;;;;;;;;20.16;40.20;101320.53;4999109;28;97032;-74
2022/05/22 08:15:40;;;;;;;;;;;;;;;20.37;39.71;101323.66;4998351;28;99989;-73
2022/05/22 08:18:07;;;;;;;;;;;;;;;20.78;39.09;101310.97;5001013;28;98739;-73
2022/05/22 08:20:34;;;;;;;;;;;;;;;21.23;38.79;101316.81;5003418;28;96858;-72
2022/05/22 08:23:01;;;;;;;;;;;;;;;21.34;38.58;101316.88;5001806;28;97616;-71
2022/05/22 08:25:29;;;;;;;;;;;;;;;21.80;37.94;101311.72;5001438;28;100826;-71
2022/05/22 08:27:55;;;;;;;;;;;;;;;22.26;36.64;101307.38;5001343;28;101696;-69
2022/05/22 08:30:24;;;;;;;;;;;;;;;21.94;37.06;101313.41;5009368;28;98819;-69
2022/05/22 08:32:51;;;;;;;;;;;;;;;20.81;39.06;101316.13;5004370;28;97539;-69
2022/05/22 08:35:19;;;;;;;;;;;;;;;20.26;40.50;101325.22;4996647;28;99720;-69
2022/05/22 08:37:45;;;;;;;;;;;;;;;20.92;39.30;101312.69;5000688;28;98113;-70
2022/05/22 08:40:13;;;;;;;;;;;;;;;21.05;39.74;101325.19;5012870;28;96851;-69
2022/05/22 08:42:42;;;;;;;;;;;;;;;20.87;39.32;101318.38;5006066;28;97812;-69
2022/05/22 08:45:10;;;;;;;;;;;;;;;21.32;37.90;101321.53;5011374;28;99291;-69
2022/05/22 08:47:44;;;;;;;;;;;;;;;21.24;37.91;101321.22;4997858;28;98912;-72
2022/05/22 08:50:12;;;;;;;;;;;;;;;21.50;37.63;101322.03;5002955;28;97260;-72
2022/05/22 08:52:41;;;;;;;;;;;;;;;21.27;38.12;101320.97;5001679;28;99273;-72
2022/05/22 08:55:09;;;;;;;;;;;;;;;21.39;38.23;101326.38;5001744;28;98932;-71
2022/05/22 09:00:23;;;;;;;;;;;;;;;21.17;38.32;101320.78;5001555;28;98071;-73
2022/05/22 09:02:59;;;;;;;;;;;;;;;20.10;39.77;101319.13;5002092;28;99134;-71
2022/05/22 09:05:29;;;;;;;;;;;;;;;20.24;39.56;101313.72;5002885;28;97582;-69
2022/05/22 09:07:59;;;;;;;;;;;;;;;21.28;38.13;101309.28;5000442;28;99429;-70
2022/05/22 09:10:28;;;;;;;;;;;;;;;21.82;36.90;101312.50;5003946;28;96811;-69
2022/05/22 09:13:08;;;;;;;;;;;;;;;21.23;37.74;101320.34;5000262;28;97538;-69
2022/05/22 09:15:39;;;;;;;;;;;;;;;21.83;36.77;101307.00;4999483;28;98819;-69
2022/05/22 09:18:10;;;;;;;;;;;;;;;21.31;37.68;101303.69;5001413;28;98777;-69
2022/05/22 09:20:42;;;;;;;;;;;;;;;21.40;37.70;101297.63;5001778;28;99118;-70
2022/05/22 09:23:19;;;;;;;;;;;;;;;22.07;36.17;101300.78;5003043;28;97108;-68
2022/05/22 09:25:53;;;;;;;;;;;;;;;22.44;35.73;101299.75;4996360;28;100052;-69
2022/05/22 09:28:24;;;;;;;;;;;;;;;22.51;35.29;101300.97;5001634;28;98837;-69
2022/05/22 09:30:56;;;;;;;;;;;;;;;22.05;36.27;101300.94;5005144;28;98389;-69
2022/05/22 09:33:24;;;;;;;;;;;;;;;22.42;35.33;101315.16;5001742;28;96838;-68
2022/05/22 09:36:00;;;;;;;;;;;;;;;22.16;35.91;101322.50;5007413;28;98969;-74
2022/05/22 09:38:34;;;;;;;;;;;;;;;22.15;36.07;101314.53;5005091;28;98774;-73
2022/05/22 09:41:07;;;;;;;;;;;;;;;21.99;37.17;101306.75;5008021;28;96893;-74
2022/05/22 09:43:54;;;;;;;;;;;;;;;21.20;37.35;101311.66;5007695;28;96730;-72
2022/05/22 09:46:29;;;;;;;;;;;;;;;22.05;36.44;101318.91;5004523;28;101591;-74
2022/05/22 09:49:04;;;;;;;;;;;;;;;22.01;35.95;101328.16;5005260;28;97518;-73
2022/05/22 09:51:37;;;;;;;;;;;;;;;22.35;35.62;101321.97;5001897;28;96989;-74
2022/05/22 09:54:11;;;;;;;;;;;;;;;22.92;34.45;101316.66;5010360;28;96799;-74
2022/05/22 09:56:46;;;;;;;;;;;;;;;22.84;34.22;101315.56;5009676;28;98584;-73
2022/05/22 09:59:26;;;;;;;;;;;;;;;22.73;34.35;101315.53;5011297;28;97613;-73
2022/05/22 10:01:55;;;;;;;;;;;;;;;22.65;34.34;101322.31;5015754;28;96919;-72
2022/05/22 10:04:28;;;;;;;;;;;;;;;22.56;34.99;101317.66;5006649;28;96926;-73
2022/05/22 10:07:00;;;;;;;;;;;;;;;21.77;36.11;101323.59;5004194;28;98925;-74
2022/05/22 10:09:32;;;;;;;;;;;;;;;21.48;36.30;101322.16;5001780;28;100026;-75
2022/05/22 10:12:05;;;;;;;;;;;;;;;21.65;36.55;101326.31;5008355;28;97152;-72
2022/05/22 10:14:39;;;;;;;;;;;;;;;22.37;35.05;101324.56;5006380;28;96989;-72
2022/05/22 10:17:16;;;;;;;;;;;;;;;22.37;35.04;101325.44;5008069;28;99193;-74
2022/05/22 10:19:46;;;;;;;;;;;;;;;21.54;36.41;101321.69;5005043;28;99255;-73
2022/05/22 10:22:22;;;;;;;;;;;;;;;22.12;35.32;101321.00;5007757;28;97376;-73
2022/05/22 10:25:06;;;;;;;;;;;;;;;22.21;34.79;101328.41;5002303;28;97225;-73
2022/05/22 10:27:43;;;;;;;;;;;;;;;22.25;35.01;101321.81;4986526;28;98746;-74
2022/05/22 10:30:12;;;;;;;;;;;;;;;22.38;34.54;101318.22;4997393;28;99117;-72
2022/05/22 10:32:45;;;;;;;;;;;;;;;23.56;33.03;101324.22;5004796;28;97100;-73
2022/05/22 10:35:18;;;;;;;;;;;;;;;23.86;31.49;101318.16;5004294;28;97198;-76
2022/05/22 10:37:48;;;;;;;;;;;;;;;23.02;32.53;101312.28;4990094;28;98924;-73
2022/05/22 10:40:19;;;;;;;;;;;;;;;22.41;33.68;101313.44;4984735;28;98787;-74
2022/05/22 10:42:46;;;;;;;;;;;;;;;22.86;33.49;101313.59;4988293;28;97236;-75
2022/05/22 10:45:17;;;;;;;;;;;;;;;22.97;33.38;101314.47;4990458;28;97670;-76
2022/05/22 10:47:43;;;;;;;;;;;;;;;22.06;35.20;101320.59;4992486;28;100004;-75
2022/05/22 10:50:18;;;;;;;;;;;;;;;22.49;34.62;101313.72;4997358;28;99674;-73
2022/05/22 10:52:46;;;;;;;;;;;;;;;23.38;33.21;101313.88;4993942;28;98907;-75
2022/05/22 10:55:19;;;;;;;;;;;;;;;23.36;33.21;101309.63;4995373;28;99372;-74
2022/05/22 10:57:57;;;;;;;;;;;;;;;22.49;33.39;101324.50;4998406;28;98647;-74
2022/05/22 11:00:24;;;;;;;;;;;;;;;22.46;33.65;101318.47;4994967;28;99447;-73
2022/05/22 11:02:51;;;;;;;;;;;;;;;22.64;33.71;101325.16;4999683;28;97162;-74
2022/05/22 11:05:19;;;;;;;;;;;;;;;22.55;33.33;101323.16;5001030;28;98017;-75
2022/05/22 11:07:48;;;;;;;;;;;;;;;21.91;34.01;101311.81;5002412;28;99233;-73
2022/05/22 11:10:16;;;;;;;;;;;;;;;21.63;35.20;101320.19;5001608;28;97962;-74
2022/05/22 11:12:43;;;;;;;;;;;;;;;22.06;34.69;101317.91;4999065;28;98374;-75
2022/05/22 11:15:11;;;;;;;;;;;;;;;22.53;33.96;101317.88;5000012;28;97434;-71
2022/05/22 11:17:37;;;;;;;;;;;;;;;21.27;36.06;101310.22;5008712;28;99361;-70
2022/05/22 11:20:09;;;;;;;;;;;;;;;21.39;36.37;101310.25;5003032;28;98631;-70
2022/05/22 11:22:38;;;;;;;;;;;;;;;21.92;35.31;101315.38;4999082;28;97038;-70
2022/05/22 11:25:18;;;;;;;;;;;;;;;21.01;36.83;101304.84;4993634;28;97336;-69
2022/05/22 11:27:53;;;;;;;;;;;;;;;21.72;35.41;101300.69;4998439;28;98905;-74
2022/05/22 11:30:28;;;;;;;;;;;;;;;22.29;34.41;101295.53;4993743;28;98052;-75
2022/05/22 11:33:03;;;;;;;;;;;;;;;22.35;33.73;101299.59;4994999;28;97642;-73
2022/05/22 11:35:34;;;;;;;;;;;;;;;22.10;34.90;101297.88;4990708;28;96965;-74
2022/05/22 11:38:07;;;;;;;;;;;;;;;21.96;35.56;101293.53;4997153;28;98943;-74
2022/05/22 11:40:38;;;;;;;;;;;;;;;22.46;34.78;101287.00;4995121;28;99228;-75
2022/05/22 11:43:14;;;;;;;;;;;;;;;22.89;33.97;101295.38;4998243;28;96950;-75
2022/05/22 11:45:44;;;;;;;;;;;;;;;21.77;35.64;101291.31;4993098;28;97290;-73
2022/05/22 11:48:28;;;;;;;;;;;;;;;22.90;32.92;101274.66;4993312;28;98945;-70
2022/05/22 11:50:58;;;;;;;;;;;;;;;22.85;32.63;101282.22;4999477;27;102010;-70
2022/05/22 11:53:37;;;;;;;;;;;;;;;22.70;31.91;101283.41;4993435;28;97479;-69
2022/05/22 11:56:15;;;;;;;;;;;;;;;23.50;30.83;101295.06;4995931;28;97505;-69
2022/05/22 11:58:45;;;;;;;;;;;;;;;22.87;31.67;101293.75;5003644;28;98865;-69
2022/05/22 12:01:16;;;;;;;;;;;;;;;22.42;32.27;101290.94;5001875;28;101107;-70
2022/05/22 12:03:58;;;;;;;;;;;;;;;23.08;31.10;101289.38;4995295;28;96833;-70
2022/05/22 12:06:37;;;;;;;;;;;;;;;22.82;31.85;101279.78;4992390;28;97528;-70
2022/05/22 12:09:15;;;;;;;;;;;;;;;22.94;31.62;101270.75;4993081;28;100032;-70
2022/05/22 12:11:52;;;;;;;;;;;;;;;22.20;33.13;101274.69;4993454;28;99208;-73
2022/05/22 12:14:23;;;;;;;;;;;;;;;21.43;34.77;101273.22;4997688;28;97691;-75
2022/05/22 12:16:56;;;;;;;;;;;;;;;22.66;33.02;101272.88;4995316;28;98494;-75
2022/05/22 12:19:30;;;;;;;;;;;;;;;23.07;32.33;101270.63;4993025;28;99530;-75
2022/05/22 12:22:02;;;;;;;;;;;;;;;22.42;32.90;101263.13;4999343;28;100399;-74
2022/05/22 12:24:33;;;;;;;;;;;;;;;22.66;32.62;101267.47;5000289;28;98457;-75
2022/05/22 12:27:02;;;;;;;;;;;;;;;21.63;34.80;101283.41;4990883;28;96799;-76
2022/05/22 12:29:34;;;;;;;;;;;;;;;21.71;34.01;101267.56;4992270;28;99335;-74
2022/05/22 12:32:13;;;;;;;;;;;;;;;22.59;32.49;101263.53;4991108;28;98803;-74
2022/05/22 12:34:44;;;;;;;;;;;;;;;23.59;30.95;101265.47;5000965;28;97176;-76
2022/05/22 12:37:13;;;;;;;;;;;;;;;24.22;29.88;101267.38;4996136;28;97210;-75
2022/05/22 12:39:45;;;;;;;;;;;;;;;24.48;28.97;101251.66;5003126;28;97790;-69
2022/05/22 12:42:27;;;;;;;;;;;;;;;24.51;28.04;101250.56;5001573;28;98784;-69
2022/05/22 12:44:55;;;;;;;;;;;;;;;24.79;28.11;101255.28;5004188;28;97120;-70
2022/05/22 12:47:21;;;;;;;;;;;;;;;24.32;29.38;101245.03;5000754;28;97718;-69
2022/05/22 12:49:53;;;;;;;;;;;;;;;24.08;29.89;101256.88;4989540;28;100792;-69
2022/05/22 12:52:28;;;;;;;;;;;;;;;23.02;32.10;101252.13;5000258;28;99553;-69